Weather observations for the past three days for
Pratt Municipal
Metric (Imperial)
Date Time (cdt) Wind (kph) Vis. (km) Weather Sky Cond. Temperature (ºC) Relative Humidity Wind Chill (°C) Heat Index (°C) Pressure Precipitation (cm)
Air Dwpt 6 hour altimeter (cm) sea level (mb) 1 hr 3 hr 6 hr
Max. Min.
31 01:55 S 17 16.09 Fair CLR 29.1 13.5 38% 29 76.05 0.0
31 01:35 S 19 16.09 Fair CLR 29.2 13.6 38% 29 76.05 0.0
31 01:15 S 15 16.09 Fair CLR 29 13.7 39% 29 76.05 0.0
31 00:55 S 17 16.09 Fair CLR 29.1 13.9 38.8 29.1 39% 29 76.05 0.0
31 00:35 S 20 16.09 Fair CLR 29.8 13.8 38% 29 76.02 0.0
31 00:20 S 24 16.09 Fair CLR 30.4 13.8 36% 30 76.02 0.0
30 23:30 S 24 16.09 Fair CLR 31.7 14 34% 31 75.92 0.0
30 23:15 S 20 16.09 Fair CLR 32 14.1 34% 31 75.92 0.0
30 22:50 S 22 16.09 Fair CLR 32.5 14.1 33% 32 75.9 0.0
30 22:35 S 22 G 31 16.09 Fair CLR 33 14.2 32% 32 75.9 0.0
30 22:15 S 26 16.09 Fair CLR 33.2 14.3 32% 33 75.9 0.0
30 21:55 S 19 16.09 Fair CLR 33.5 14.3 31% 33 75.9 0.0
30 21:35 S 20 16.09 Fair CLR 34.2 14.1 30% 34 75.9 0.0
30 21:15 S 19 16.09 Fair CLR 34.5 13.9 29% 34 75.87 0.0
30 20:55 S 19 16.09 Fair CLR 34.7 13.7 28% 34 75.87 0.0
30 20:35 S 20 16.09 Fair CLR 35.5 13.3 26% 35 75.84 0.0
30 20:15 S 17 16.09 Fair CLR 36.4 13.1 25% 36 75.82 0.0
30 19:55 S 28 G 37 16.09 Fair CLR 37.1 13.1 24% 36 75.82 0.0
30 19:35 S 26 16.09 Fair CLR 37.6 13.1 23% 37 75.82 0.0
30 19:15 S 30 16.09 Fair CLR 38.2 13 22% 37 75.82 0.0
30 18:55 S 31 G 39 16.09 Fair CLR 38.9 12.8 41.4 38.6 21% 38 75.82 0.0
30 18:35 S 31 G 41 16.09 Fair CLR 39.4 12.8 20% 39 75.79 0.0
30 18:15 S 37 G 50 16.09 Fair and Breezy CLR 39.8 12.7 20% 39 75.79 0.0
30 17:55 S 33 G 43 16.09 Fair and Breezy CLR 40.3 12.6 19% 40 75.79 0.0
30 17:35 S 33 G 43 16.09 Fair and Breezy CLR 40.6 12.7 19% 40 75.79 0.0
30 17:15 S 30 G 43 16.09 Fair CLR 40.9 12.4 18% 40 75.77 0.0
30 16:55 S 37 G 43 16.09 Fair and Breezy CLR 40.9 12.2 18% 40 75.79 0.0
30 16:35 S 30 G 48 16.09 Fair CLR 41 12.2 18% 40 75.77 0.0
30 16:15 S 41 G 50 16.09 Fair and Breezy CLR 41.2 12.4 18% 40 75.79 0.0
30 15:55 SW 35 G 46 16.09 Fair and Breezy CLR 41.1 12.6 18% 40 75.82 0.0
30 15:35 SW 33 G 46 16.09 Fair and Breezy CLR 41 12.9 19% 40 75.82 0.0
30 15:15 S 28 G 44 16.09 Fair CLR 41 13 19% 40 75.84 0.0
30 14:55 SW 26 G 46 16.09 Fair CLR 41 13.5 20% 41 75.87 0.0
30 14:35 SW 35 16.09 Fair and Breezy CLR 40.6 14.1 21% 40 75.9 0.0
30 14:15 SW 24 G 43 16.09 Fair CLR 40 13.9 21% 40 75.9 0.0
30 13:55 S 33 G 43 16.09 Fair and Breezy CLR 40.1 13.7 21% 40 75.9 0.0
30 13:35 S 31 G 44 16.09 Fair CLR 40 14 21% 40 75.9 0.0
30 13:15 S 26 G 41 16.09 Fair CLR 39.3 14 22% 39 75.92 0.0
30 12:55 S 33 G 46 16.09 Fair and Breezy CLR 38.5 14.1 38.7 25.3 23% 38 75.95 0.0
30 12:35 SW 33 G 46 16.09 Fair and Breezy CLR 38 14.6 25% 38 75.95 0.0
30 12:15 S 37 G 44 16.09 Fair and Breezy CLR 37.3 14.7 26% 37 75.97 0.0
30 11:55 S 39 G 46 16.09 Fair and Breezy CLR 36.5 14.5 27% 36 75.97 0.0
30 11:35 S 33 G 44 16.09 Fair and Breezy CLR 35.7 15.1 29% 36 75.97 0.0
30 11:15 S 31 G 43 16.09 Fair CLR 34.9 14.6 29% 34 76 0.0
30 10:55 S 39 16.09 Fair and Breezy CLR 33.6 15.1 33% 33 75.97 0.0
30 10:35 S 41 G 48 16.09 Fair and Breezy CLR 33 14.9 34% 33 75.95 0.0
30 10:15 S 41 G 48 16.09 Fair and Breezy CLR 31.9 15 36% 31 75.97 0.0
30 09:55 S 31 G 46 16.09 Fair CLR 30.5 15 39% 30 75.97 0.0
30 09:35 S 35 G 52 16.09 Fair and Breezy CLR 29.5 14.6 40% 29 76 0.0
30 09:15 S 33 16.09 Fair and Breezy CLR 28.7 14.6 42% 28 76 0.0
30 08:55 S 31 G 41 16.09 Fair CLR 28.1 14.5 43% 28 76.02 0.0
30 08:35 S 28 G 35 16.09 Fair CLR 27.3 14.3 45% 27 76.02 0.0
30 08:15 S 31 16.09 Fair CLR 26.3 14.1 47% 27 76 0.0
30 07:55 S 26 16.09 Fair CLR 25.9 14 48% 26 76 0.0
30 07:35 S 22 16.09 Fair CLR 25.6 13.8 48% 26 76.02 0.0
30 07:15 S 22 16.09 Fair CLR 25.3 13.6 48% 26 76 0.0
30 06:55 S 28 16.09 Fair CLR 25.6 13.6 29.6 25.6 48% 26 76 0.0
30 06:35 S 26 16.09 Fair CLR 25.8 13.5 47% 26 75.97 0.0
30 06:15 S 28 16.09 Fair CLR 26.1 13.5 46% 26 75.97 0.0
30 05:55 S 28 G 35 16.09 Fair CLR 26.1 13.5 46% 26 75.97 0.0
30 05:35 S 26 16.09 Fair CLR 26.5 13.5 45% 27 75.97 0.0
30 05:15 S 24 16.09 Fair CLR 26.4 13.3 44% 27 76 0.0
30 04:55 S 20 G 28 16.09 Fair CLR 26.5 13.1 44% 27 76 0.0
30 04:35 S 24 16.09 Fair CLR 26.5 13 43% 27 76 0.0
30 04:15 S 24 16.09 Fair CLR 26.5 12.9 43% 27 76 0.0
30 03:55 S 24 16.09 Fair CLR 27.2 12.7 41% 27 76 0.0
30 03:35 S 26 16.09 Fair CLR 27.5 12.5 39% 27 76 0.0
30 03:15 S 28 16.09 Fair CLR 27.1 12.5 40% 27 76 0.0
30 02:55 S 22 16.09 Fair CLR 27.2 12.4 40% 27 76 0.0
30 02:35 S 26 G 35 16.09 Fair CLR 27.7 12.2 38% 27 76 0.0
30 02:15 S 28 G 39 16.09 Fair CLR 28.2 12 37% 28 76 0.0
30 01:55 S 26 G 35 16.09 Fair CLR 28.5 12.1 36% 28 76 0.0
30 01:35 S 26 16.09 Fair CLR 28.6 12.1 36% 28 76 0.0
30 01:15 S 22 16.09 Fair CLR 29.2 12.1 35% 28 76 0.0
30 00:55 S 24 16.09 Fair CLR 29.7 12 37.9 29.7 34% 29 76 0.0
30 00:35 S 28 G 35 16.09 Fair CLR 30.2 12.1 33% 29 76 0.0
30 00:15 S 30 G 39 16.09 Fair CLR 30.6 12.1 32% 30 76 0.0
29 23:55 S 26 G 35 16.09 Fair CLR 31.1 12.2 31% 30 76 0.0
29 23:35 S 24 G 35 16.09 Fair CLR 31.5 12.2 31% 30 76 0.0
29 23:15 S 24 16.09 Fair CLR 31.8 12.3 30% 31 76 0.0
29 22:55 S 30 G 35 16.09 Fair CLR 32.2 12.3 30% 31 76 0.0
29 22:35 S 26 G 37 16.09 Fair CLR 32.5 12.1 29% 31 76 0.0
29 22:15 S 24 G 33 16.09 Fair CLR 32.5 11.9 28% 31 75.97 0.0
29 21:55 S 24 G 31 16.09 Fair CLR 33 11.8 27% 32 75.95 0.0
29 21:35 S 28 G 35 16.09 Fair CLR 33.5 12 27% 32 75.92 0.0
29 21:15 S 22 16.09 Fair CLR 33.6 12.1 27% 32 75.92 0.0
29 20:55 S 19 16.09 Fair CLR 34.2 12 26% 33 75.9 0.0
29 20:35 S 20 16.09 Fair CLR 35.1 12 25% 34 75.9 0.0
29 20:15 S 24 16.09 Fair CLR 35.6 12 24% 34 75.87 0.0
29 19:55 S 26 G 37 16.09 Fair CLR 36.1 12.2 24% 35 75.87 0.0
29 19:35 S 31 16.09 Fair CLR 36.6 12.7 24% 36 75.87 0.0
29 19:15 S 35 G 43 16.09 Fair and Breezy CLR 37.5 12.7 22% 37 75.84 0.0
29 18:55 S 41 G 52 16.09 Fair and Breezy CLR 38 12.7 40.3 38 22% 37 75.84 0.0
29 18:35 S 35 G 43 16.09 Fair and Breezy CLR 38.4 13 22% 38 75.84 0.0
29 18:15 S 30 G 46 16.09 Fair CLR 39 13 21% 38 75.84 0.0
29 17:55 S 37 G 48 16.09 Fair and Breezy CLR 39.4 13 21% 39 75.84 0.0
29 17:35 S 35 G 46 16.09 Fair and Breezy CLR 39.6 13 20% 39 75.84 0.0
29 17:15 S 35 G 48 16.09 Fair and Breezy CLR 39.7 13.1 20% 39 75.87 0.0
29 16:55 S 31 G 44 16.09 Fair CLR 39.6 12.9 20% 39 75.87 0.0
29 16:35 S 31 G 50 16.09 Fair CLR 40.1 13.1 20% 40 75.9 0.0
29 16:15 S 35 G 50 16.09 Fair and Breezy CLR 39.9 13.2 20% 39 75.92 0.0
29 15:55 S 41 G 48 16.09 Fair and Breezy CLR 39.9 13.4 21% 39 75.95 0.0
29 15:35 S 30 G 50 16.09 Fair CLR 39.1 14 22% 39 75.97 0.0
29 15:15 S 30 G 39 16.09 Fair CLR 38.7 13.6 22% 38 75.97 0.0
29 14:55 SW 33 G 50 16.09 Fair and Breezy CLR 38.3 13.5 23% 38 76 0.0
29 14:35 SW 33 G 44 16.09 Fair and Breezy CLR 38.8 13.7 22% 38 76.02 0.0
29 14:15 SW 33 G 44 16.09 Fair and Breezy CLR 39.8 13.7 21% 39 76.05 0.0
29 13:55 SW 35 G 48 16.09 Fair and Breezy CLR 38.5 13.9 23% 38 76.05 0.0
29 13:35 SW 37 G 50 16.09 Fair and Breezy CLR 38.7 14.1 23% 38 76.07 0.0
29 13:15 S 33 G 44 16.09 Fair and Breezy CLR 38.3 14.5 24% 38 76.07 0.0
29 12:55 SW 30 G 48 16.09 Fair CLR 38.1 14.9 38.1 23 25% 38 76.12 0.0
29 12:35 SW 35 G 46 16.09 Fair and Breezy CLR 37.2 14.7 26% 37 76.15 0.0
29 12:15 SW 35 G 52 16.09 Fair and Breezy CLR 36.5 14.5 27% 36 76.17 0.0
29 11:55 SW 30 G 43 16.09 Fair CLR 36 14.7 28% 36 76.17 0.0
29 11:35 SW 33 G 44 16.09 Fair and Breezy CLR 34.6 14.4 30% 34 76.2 0.0
29 11:15 SW 35 G 44 16.09 Fair and Breezy CLR 33.8 14 30% 33 76.23 0.0
29 10:55 SW 31 G 41 16.09 Fair CLR 33.7 13.8 30% 33 76.23 0.0
29 10:35 S 30 16.09 Fair CLR 32.2 13.1 31% 31 76.23 0.0
29 10:15 S 30 16.09 Fair CLR 30.3 12.4 33% 29 76.25 0.0
29 09:55 S 26 16.09 Fair CLR 28.6 11.8 35% 28 76.25 0.0
29 09:35 S 26 G 35 16.09 Fair CLR 26.9 11.4 38% 27 76.25 0.0
29 09:15 S 22 16.09 Fair CLR 24.7 10.8 42% 26 76.28 0.0
29 08:55 S 20 16.09 Fair CLR 24.5 10.6 42% 26 76.28 0.0
29 08:35 S 20 16.09 Fair CLR 24.1 10.5 42% 25 76.3 0.0
29 08:15 S 19 16.09 Fair CLR 23.6 10.5 44% 76.28 0.0
29 07:55 S 20 16.09 Fair CLR 23.5 10.5 44% 76.28 0.0
29 07:35 S 19 16.09 Fair CLR 23.5 10.3 43% 76.28 0.0
29 07:15 S 19 16.09 Fair CLR 23.4 10.5 44% 76.28 0.0
29 06:55 S 19 16.09 Fair CLR 23 10.5 27.2 22.9 45% 76.28 0.0
29 06:35 S 20 16.09 Fair CLR 22.9 10.6 46% 76.28 0.0
29 06:15 S 15 16.09 Fair CLR 23.5 10.6 44% 76.28 0.0
29 05:55 S 19 16.09 Fair CLR 23.5 10.8 45% 76.3 0.0
29 05:35 S 19 16.09 Fair CLR 23.7 10.7 44% 76.3 0.0
29 05:15 S 20 16.09 Fair CLR 24.3 10.8 43% 25 76.3 0.0
29 04:55 S 20 16.09 Fair CLR 24.5 10.9 42% 26 76.3 0.0
29 04:35 S 20 16.09 Fair CLR 24.1 11.1 44% 25 76.33 0.0
29 04:15 S 20 16.09 Fair CLR 24.2 11.3 44% 25 76.33 0.0
29 03:35 S 19 16.09 Fair CLR 24.8 11.2 43% 26 76.3 0.0
29 03:15 S 17 16.09 Fair CLR 25.3 11.2 41% 26 76.33 0.0
29 02:55 S 15 16.09 Fair CLR 25.5 11.5 42% 26 76.33 0.0
29 02:35 S 17 16.09 Fair CLR 25.6 11.6 42% 26 76.33 0.0
29 02:15 S 22 16.09 Fair CLR 25.8 11.6 41% 26 76.33 0.0
29 01:55 S 20 16.09 Fair CLR 26 11.6 41% 26 76.33 0.0
29 01:35 S 22 G 33 16.09 Fair CLR 26.3 11.7 40% 26 76.35 0.0
29 01:15 S 17 G 28 16.09 Fair CLR 26.8 11.6 39% 27 76.35 0.0
29 00:55 S 20 G 30 16.09 Fair CLR 27.3 11.5 35.3 27.3 37% 27 76.33 0.0
29 00:35 S 22 G 31 16.09 Fair CLR 27.9 11.2 35% 27 76.33 0.0
29 00:15 S 24 G 31 16.09 Fair CLR 28.5 11.1 34% 28 76.33 0.0
28 23:55 S 24 G 33 16.09 Fair CLR 28.6 11.2 34% 28 76.33 0.0
28 23:35 S 24 16.09 Fair CLR 28.7 11.6 35% 28 76.33 0.0
28 23:15 S 26 16.09 Fair CLR 29 11.6 34% 28 76.33 0.0
28 22:55 SE 20 G 31 16.09 Fair CLR 28.9 12 35% 28 76.33 0.0
28 22:35 SE 17 16.09 Fair CLR 28.5 12.4 37% 28 76.33 0.0
28 22:15 SE 17 16.09 Fair CLR 28.6 12 36% 28 76.33 0.0
28 21:55 SE 15 16.09 Fair CLR 29.2 11.5 33% 28 76.3 0.0
28 21:35 SE 17 16.09 Fair CLR 29.5 11.4 33% 28 76.3 0.0
28 21:15 SE 13 16.09 Fair CLR 29.7 11.6 33% 29 76.28 0.0
28 20:55 SE 13 16.09 Fair CLR 30.3 11.7 32% 29 76.25 0.0
28 20:35 SE 13 16.09 Fair CLR 30.9 11.7 31% 30 76.23 0.0
28 20:15 SE 17 16.09 Fair CLR 32 11.9 29% 31 76.23 0.0
28 19:55 SE 17 16.09 Fair CLR 33 12.8 29% 32 76.23 0.0
28 19:35 SE 17 16.09 Fair CLR 34.1 13.5 29% 33 76.23 0.0
28 19:15 S 19 16.09 Fair CLR 34.7 14 29% 34 76.23 0.0
28 18:55 S 20 G 31 16.09 Fair CLR 35.3 13.8 37 33.1 27% 35 76.23 0.0
28 18:35 S 19 G 31 16.09 Fair CLR 35.6 13.7 27% 35 76.23 0.0
28 18:15 S 17 16.09 Partly Cloudy SCT085 36 13.7 26% 35 76.23 0.0
28 17:55 S 19 G 31 16.09 Fair CLR 36 14.2 27% 35 76.25 0.0
28 17:35 S 20 G 30 16.09 Fair CLR 36.5 14.1 26% 36 76.25 0.0
28 17:15 SW 20 G 30 16.09 Partly Cloudy SCT085 36.1 14.4 27% 36 76.28 0.0
28 16:55 S 15 G 31 16.09 Partly Cloudy SCT085 36.9 14.2 26% 36 76.28 0.0
28 16:35 SW 19 G 31 16.09 Partly Cloudy SCT075 SCT100 36.2 14.5 27% 36 76.3 0.0
28 16:15 S 20 G 28 16.09 Partly Cloudy SCT075 36.4 15.1 28% 36 76.33 0.0
28 15:55 S 24 G 33 16.09 Partly Cloudy SCT075 SCT095 36.1 15.3 29% 36 76.33 0.0
28 15:35 S 15 G 26 16.09 Fair CLR 35.4 15.3 30% 35 76.38 0.0
28 15:15 S 26 G 31 16.09 Partly Cloudy SCT070 35.4 15 29% 35 76.38 0.0
28 14:55 S 20 G 30 16.09 Fair CLR 35.6 15.2 29% 35 76.43 0.0
28 14:35 S 24 G 35 16.09 Fair CLR 35.5 15.7 31% 36 76.43 0.0
28 14:15 SW 24 G 37 16.09 Fair CLR 35.3 15.9 31% 35 76.45 0.0
28 13:55 S 20 G 33 16.09 Fair CLR 34.8 15.9 32% 35 76.48 0.0
28 13:35 S 15 G 37 16.09 Fair CLR 34.4 15.8 33% 34 76.48 0.0
28 13:15 SW 26 G 31 16.09 Fair CLR 33.8 16 34% 34 76.5 0.0
28 12:55 SW 13 G 30 16.09 Fair CLR 33 15.7 33.1 20 35% 33 76.56 0.0
28 12:35 SW 17 G 41 16.09 Fair CLR 32.5 15.8 37% 32 76.56 0.0
28 12:15 S 28 16.09 Fair CLR 32.1 15.6 37% 32 76.58 0.0
28 11:55 SW 26 16.09 Fair CLR 31.3 14.9 37% 31 76.61 0.0
28 11:35 S 24 16.09 Fair CLR 30.9 14.6 37% 30 76.61 0.0
28 11:15 S 20 16.09 Fair CLR 30.3 13.8 36% 30 76.61 0.0
28 10:55 S 20 16.09 Fair CLR 29.1 13.4 38% 29 76.61 0.0
28 10:35 S 22 16.09 Fair CLR 28.2 13 39% 28 76.61 0.0
28 10:15 S 22 16.09 Fair CLR 27.1 13.2 42% 27 76.61 0.0
28 09:55 S 15 16.09 Fair CLR 26 13.8 47% 26 76.61 0.0
28 09:35 SE 24 16.09 Fair CLR 25.6 13.9 48% 26 76.61 0.0
28 09:15 S 13 16.09 Fair CLR 24.8 14.7 54% 26 76.61 0.0
28 08:55 S 13 16.09 Fair CLR 23.6 15 59% 76.61 0.0
28 08:35 S 11 16.09 Fair CLR 22.7 15.6 64% 76.61 0.0
28 08:15 S 6 16.09 Fair CLR 21.5 16.8 75% 76.61 0.0
28 07:55 S 17 16.09 Partly Cloudy SCT120 21.7 16.4 72% 76.56 0.0
28 07:35 SE 15 16.09 Mostly Cloudy BKN120 20.5 18 86% 76.56 0.0
28 07:15 E 9 16.09 Mostly Cloudy BKN120 20.6 18 85% 76.61 0.0
28 06:55 S 13 16.09 Partly Cloudy SCT120 20 18.6 25.1 19.8 92% 76.56 0.0
28 06:35 S 19 16.09 Partly Cloudy SCT095 SCT120 20 18.4 91% 76.53 0.0
28 06:10 W 15 16.09 Partly Cloudy SCT120 20 18.9 93% 76.61 0.0
28 05:55 W 9 16.09 Fair CLR 20 18.6 92% 76.61 0.0
28 05:35 SW 7 16.09 Partly Cloudy SCT026 SCT042 SCT055 20.7 16.8 78% 76.56 0.0
28 05:20 SE 13 16.09 Light Rain SCT024 SCT042 BKN120 20.6 16.9 79% 76.5 0.0
28 04:50 Calm 16.09 Light Drizzle SCT050 SCT060 BKN110 20.8 16.4 76% 76.61 0.0
28 04:35 N 11 16.09 Light Rain SCT110 21.1 16.1 73% 76.66 0.0
28 04:15 N 15 16.09 Partly Cloudy SCT065 SCT090 SCT110 21.5 16.1 71% 76.73 0.0
28 03:55 N 37 G 44 16.09 Overcast and Breezy SCT065 BKN080 OVC110 23.1 16 64% 76.73 0.0
28 03:35 N 33 G 41 16.09 Mostly Cloudy and Breezy BKN080 BKN110 22.5 14.5 61% 76.68 0.0
28 03:15 Calm 16.09 Fair CLR 23 13.6 56% 76.58 0.0
28 02:55 Calm 16.09 Fair CLR 23 13.7 56% 76.58 0.0
28 02:35 SE 6 16.09 Fair CLR 23.5 13.6 54% 76.58 0.0
28 02:15 SE 7 16.09 Fair CLR 23.7 13.6 53% 76.56 0.0
Date Time (cdt) Wind (kph) Vis. (km) Weather Sky Cond. Air Dwpt Max. Min. Relative Humidity Wind Chill (°C) Heat Index (°C) altimeter (cm) sea level (mb) 1 hr 3 hr 6 hr
6 hour
Temperature (ºC) Pressure Precipitation (cm)